Licenciado Adolfo Lopez Mateos International Airport
MMTO : now visible

Airfield :











YOU CAN JOIN US ON...

 
LOGIN :

Register | Disclaimer

   EN    FR    IT 

 









Legend :    VFR   Marginal VFR   IFR   Intensive IFR   Very Intensive IFR
Visi :
Ceiling :
>= 8 km
>= 3000ft
5 to 8 km
1000 to 3000 ft
1500m to 5 km
500 to 1000 ft
800 to 1500m
200 to 500 ft
< 800m
< 200 ft
Symbols :   Thunderstorms  Fog  Heavy snow  Heavy precipitations  Wind > 20 kt






- Airport Elevation : 8466 ft
- IATA code : TLC


MMTO - Licenciado Adolfo Lopez Mateos International

CURRENT METAR :
  • 130652Z 00000KT 7SM BKN020 BKN070 08/05 A3043 RMK 8/530 HZY

EXPIRED METARs :
  • 130550Z 00000KT 7SM BKN020 BKN070 12/06 A3044 RMK SLP/// 5//// 9// 8/530 HZY
  • 130446Z 28005KT 7SM BKN020 BKN070 11/08 A3044 RMK 8/530 HZY

TAF TAF MMTO
Valid from the 13 at 06:00 until the 14 at 12:00 UTC


130447Z 1306/1412 08005KT 6SM HZ SCT015 BKN070 TX21/1312Z TN04/1312Z
FM131000 00000KT 3SM HZ SCT010 BKN070
TEMPO 1311/1315 1/2SM FG VV003
FM131800 04010KT 6SM HZ SCT015 SCT070
FM140300 03005KT 5SM HZ SCT015



MET'MAP, your aeronautical weather chart ! - Copyright ORBIFLY December 2007 - Disclaimer

ORBIFLY MET'MAP TEAM :

Programming & Development : Alexandra Zaïnal
Concept & original design : Baudouin d'Aumeries
Assistance for programming : Marc-Olivier Méhu
Technical & hardware support : Manuel Goepfert

Contact : metmap@orbifly.com




SOURCES & CREDITS :

   NOAA       Earth
Advisory